createdAt,value
2023-06-23T00:00:29.285Z,18.20
2023-06-23T00:02:39.562Z,18.20
2023-06-23T00:04:48.196Z,18.20
2023-06-23T00:06:57.220Z,18.10
2023-06-23T00:09:14.638Z,18.10
2023-06-23T00:11:23.574Z,18.10
2023-06-23T00:13:35.868Z,18.00
2023-06-23T00:15:44.376Z,18.00
2023-06-23T00:17:54.679Z,18.00
2023-06-23T00:20:04.048Z,17.90
2023-06-23T00:22:12.656Z,17.90
2023-06-23T00:24:22.930Z,17.90
2023-06-23T00:26:31.837Z,17.80
2023-06-23T00:28:40.417Z,17.80
2023-06-23T00:30:49.412Z,17.80
2023-06-23T00:32:59.512Z,17.80
2023-06-23T00:35:09.551Z,17.70
2023-06-23T00:37:18.240Z,17.70
2023-06-23T00:39:27.347Z,17.70
2023-06-23T00:41:36.916Z,17.70
2023-06-23T00:43:51.347Z,17.70
2023-06-23T00:46:08.745Z,17.70
2023-06-23T00:48:19.119Z,17.60
2023-06-23T00:50:28.073Z,17.60
2023-06-23T00:52:36.825Z,17.50
2023-06-23T00:54:46.338Z,17.50
2023-06-23T00:56:55.211Z,17.50
2023-06-23T00:59:04.610Z,17.50
2023-06-23T01:01:13.675Z,17.50
2023-06-23T01:03:24.002Z,17.40
2023-06-23T01:05:36.666Z,17.40
2023-06-23T01:07:51.960Z,17.40
2023-06-23T01:10:09.172Z,17.40
2023-06-23T01:12:25.722Z,17.40
2023-06-23T01:14:39.405Z,17.40
2023-06-23T01:16:53.398Z,17.30
2023-06-23T01:19:14.309Z,17.20
2023-06-23T01:21:33.677Z,17.20
2023-06-23T01:24:06.831Z,17.20
2023-06-23T01:26:31.372Z,17.20
2023-06-23T01:28:50.797Z,17.20
2023-06-23T01:31:02.154Z,17.20
2023-06-23T01:33:16.620Z,17.10
2023-06-23T01:35:29.801Z,17.10
2023-06-23T01:37:40.506Z,17.10
2023-06-23T01:39:54.806Z,17.10
2023-06-23T01:42:09.389Z,17.10
2023-06-23T01:44:22.599Z,17.10
2023-06-23T01:46:36.577Z,17.00
2023-06-23T01:48:49.071Z,17.00
2023-06-23T01:50:59.320Z,17.10
2023-06-23T01:53:09.751Z,17.10
2023-06-23T01:55:19.890Z,17.00
2023-06-23T01:57:29.649Z,17.00
2023-06-23T01:59:41.718Z,17.00
2023-06-23T02:01:51.469Z,16.90
2023-06-23T02:04:03.189Z,16.80
2023-06-23T02:06:13.312Z,16.80
2023-06-23T02:08:22.699Z,16.70
2023-06-23T02:10:32.164Z,16.70
2023-06-23T02:12:44.427Z,16.70
2023-06-23T02:14:55.349Z,16.60
2023-06-23T02:17:05.149Z,16.70
2023-06-23T02:19:15.743Z,16.70
2023-06-23T02:21:25.189Z,16.70
2023-06-23T02:23:34.865Z,16.70
2023-06-23T02:25:44.207Z,16.80
2023-06-23T02:27:54.040Z,16.80
2023-06-23T02:30:04.694Z,16.90
2023-06-23T02:32:18.131Z,16.90
2023-06-23T02:34:28.158Z,17.00
2023-06-23T02:36:44.063Z,17.10
2023-06-23T02:38:57.315Z,17.00
2023-06-23T02:41:08.572Z,17.00
2023-06-23T02:43:20.368Z,17.00
2023-06-23T02:45:33.951Z,17.00
2023-06-23T02:47:45.594Z,17.00
2023-06-23T02:49:59.615Z,17.00
2023-06-23T02:52:11.603Z,17.00
2023-06-23T02:54:20.643Z,17.10
2023-06-23T02:56:31.474Z,17.10
2023-06-23T02:58:41.506Z,17.10
2023-06-23T03:00:53.771Z,17.10
2023-06-23T03:03:04.847Z,17.10
2023-06-23T03:05:14.053Z,17.20
2023-06-23T03:07:22.855Z,17.20
2023-06-23T03:09:31.948Z,17.20
2023-06-23T03:11:40.703Z,17.20
2023-06-23T03:13:50.420Z,17.20
2023-06-23T03:16:05.393Z,17.30
2023-06-23T03:18:18.331Z,17.30
2023-06-23T03:20:31.964Z,17.30
2023-06-23T03:22:44.866Z,17.30
2023-06-23T03:24:56.759Z,17.30
2023-06-23T03:27:09.150Z,17.30
2023-06-23T03:29:20.050Z,17.40
2023-06-23T03:31:31.382Z,17.50
2023-06-23T03:33:44.416Z,17.50
2023-06-23T03:35:55.570Z,17.50
2023-06-23T03:38:09.375Z,17.60
2023-06-23T03:40:22.070Z,17.70
2023-06-23T03:42:31.371Z,17.70
2023-06-23T03:44:44.907Z,17.60
2023-06-23T03:46:59.759Z,17.60
2023-06-23T03:49:11.407Z,17.60
2023-06-23T03:51:23.658Z,17.60
2023-06-23T03:53:35.130Z,17.60
2023-06-23T03:55:45.915Z,17.70
2023-06-23T03:57:56.189Z,17.70
2023-06-23T04:00:06.508Z,17.70
2023-06-23T04:02:18.968Z,17.70
2023-06-23T04:04:29.470Z,17.60
2023-06-23T04:06:40.422Z,17.60
2023-06-23T04:08:50.732Z,17.70
2023-06-23T04:11:01.472Z,17.70
2023-06-23T04:13:11.990Z,17.70
2023-06-23T04:15:22.410Z,17.70
2023-06-23T04:17:36.563Z,17.80
2023-06-23T04:19:49.978Z,17.80
2023-06-23T04:22:00.803Z,17.90
2023-06-23T04:24:11.242Z,17.90
2023-06-23T04:26:20.233Z,18.00
2023-06-23T04:28:30.984Z,18.00
2023-06-23T04:30:40.421Z,18.10
2023-06-23T04:32:51.074Z,18.10
2023-06-23T04:35:00.050Z,18.10
2023-06-23T04:37:14.331Z,18.10
2023-06-23T04:39:29.275Z,18.10
2023-06-23T04:41:42.264Z,18.10
2023-06-23T04:43:55.777Z,18.20
2023-06-23T04:46:10.158Z,18.30
2023-06-23T04:48:27.063Z,18.30
2023-06-23T04:50:37.348Z,18.30
2023-06-23T04:52:54.340Z,18.30
2023-06-23T04:55:07.766Z,18.30
2023-06-23T04:57:19.265Z,18.30
2023-06-23T04:59:30.036Z,18.30
2023-06-23T05:01:40.801Z,18.40
2023-06-23T05:03:52.474Z,18.50
2023-06-23T05:06:02.406Z,18.60
2023-06-23T05:08:12.372Z,18.60
2023-06-23T05:10:23.248Z,18.60
2023-06-23T05:12:33.086Z,18.60
2023-06-23T05:14:43.358Z,18.80
2023-06-23T05:16:52.947Z,18.80
2023-06-23T05:19:07.928Z,18.70
2023-06-23T05:21:19.028Z,18.80
2023-06-23T05:23:29.538Z,18.80
2023-06-23T05:25:41.203Z,18.80
2023-06-23T05:27:53.529Z,18.80
2023-06-23T05:30:04.018Z,18.80
2023-06-23T05:32:17.214Z,18.90
2023-06-23T05:34:29.274Z,19.00
2023-06-23T05:36:40.644Z,19.00
2023-06-23T05:38:51.376Z,19.00
2023-06-23T05:41:00.658Z,18.90
2023-06-23T05:43:08.985Z,18.90
2023-06-23T05:45:17.511Z,18.90
2023-06-23T05:47:29.692Z,18.90
2023-06-23T05:49:47.989Z,18.80
2023-06-23T05:51:59.275Z,18.90
2023-06-23T05:54:12.574Z,19.00
2023-06-23T05:56:25.138Z,19.30
2023-06-23T05:58:35.829Z,19.40
2023-06-23T06:00:48.754Z,19.50
2023-06-23T06:02:59.035Z,19.60
2023-06-23T06:05:19.196Z,19.70
2023-06-23T06:07:29.096Z,19.70
2023-06-23T06:09:38.698Z,19.80
2023-06-23T06:11:49.173Z,19.80
2023-06-23T06:14:00.721Z,19.90
2023-06-23T06:16:11.877Z,20.00
2023-06-23T06:18:22.685Z,20.10
2023-06-23T06:20:34.470Z,20.10
2023-06-23T06:22:46.116Z,20.00
2023-06-23T06:24:56.631Z,20.00
2023-06-23T06:27:08.315Z,20.20
2023-06-23T06:29:20.228Z,20.30
2023-06-23T06:31:31.637Z,20.30
2023-06-23T06:33:42.448Z,20.20
2023-06-23T06:35:56.720Z,20.20
2023-06-23T06:38:08.059Z,20.40
2023-06-23T06:40:20.011Z,20.50
2023-06-23T06:42:28.868Z,20.70
2023-06-23T06:44:37.473Z,20.70
2023-06-23T06:46:48.991Z,20.80
2023-06-23T06:48:59.349Z,20.80
2023-06-23T06:51:12.422Z,20.90
2023-06-23T06:53:22.769Z,20.90
2023-06-23T06:55:33.181Z,20.90
2023-06-23T06:57:41.928Z,20.80
2023-06-23T06:59:50.557Z,20.70
2023-06-23T07:01:59.975Z,20.70
2023-06-23T07:04:09.691Z,20.80
2023-06-23T07:06:20.592Z,20.80
2023-06-23T07:08:33.353Z,20.80
2023-06-23T07:10:42.427Z,20.80
2023-06-23T07:12:51.152Z,20.70
2023-06-23T07:14:59.804Z,20.70
2023-06-23T07:17:09.076Z,20.90
2023-06-23T07:19:17.603Z,20.90
2023-06-23T07:21:28.063Z,21.00
2023-06-23T07:23:39.113Z,21.10
2023-06-23T07:25:49.837Z,21.20
2023-06-23T07:27:58.404Z,21.30
2023-06-23T07:30:08.566Z,21.40
2023-06-23T07:32:17.476Z,21.40
2023-06-23T07:34:26.551Z,21.50
2023-06-23T07:36:37.118Z,21.60
2023-06-23T07:38:45.478Z,21.70
2023-06-23T07:40:54.584Z,21.60
2023-06-23T07:43:03.662Z,21.70
2023-06-23T07:45:12.623Z,21.70
2023-06-23T07:47:21.762Z,21.90
2023-06-23T07:49:30.819Z,22.10
2023-06-23T07:51:41.592Z,22.30
2023-06-23T07:54:05.766Z,22.30
2023-06-23T07:56:15.457Z,22.30
2023-06-23T07:58:24.143Z,22.30
2023-06-23T08:00:32.925Z,22.50
2023-06-23T08:02:41.667Z,22.50
2023-06-23T08:04:50.773Z,22.60
2023-06-23T08:07:01.851Z,22.70
2023-06-23T08:09:10.270Z,22.80
2023-06-23T08:11:18.980Z,22.90
2023-06-23T08:13:27.679Z,22.70
2023-06-23T08:15:36.503Z,22.80
2023-06-23T08:17:45.131Z,23.00
2023-06-23T08:19:53.931Z,23.20
2023-06-23T08:22:05.779Z,23.20
2023-06-23T08:24:14.740Z,23.20
2023-06-23T08:26:24.773Z,23.30
2023-06-23T08:28:33.704Z,23.20
2023-06-23T08:30:42.740Z,23.30
2023-06-23T08:32:51.704Z,23.20
2023-06-23T08:35:01.647Z,23.40
2023-06-23T08:37:12.528Z,23.50
2023-06-23T08:39:21.800Z,23.50
2023-06-23T08:41:32.264Z,23.80
2023-06-23T08:43:46.242Z,24.00
2023-06-23T08:45:58.945Z,23.80
2023-06-23T08:48:08.698Z,23.90
2023-06-23T08:50:18.324Z,24.10
2023-06-23T08:52:29.174Z,23.90
2023-06-23T08:54:38.102Z,23.90
2023-06-23T08:56:47.764Z,24.00
2023-06-23T08:58:57.260Z,24.10
2023-06-23T09:01:07.262Z,24.20
2023-06-23T09:03:16.707Z,24.30
2023-06-23T09:05:25.194Z,24.30
2023-06-23T09:07:35.861Z,24.60
2023-06-23T09:09:49.173Z,24.90
2023-06-23T09:11:58.327Z,24.90
2023-06-23T09:14:09.429Z,24.70
2023-06-23T09:16:19.937Z,24.90
2023-06-23T09:18:28.748Z,25.30
2023-06-23T09:20:38.782Z,25.20
2023-06-23T09:22:50.122Z,25.10
2023-06-23T09:24:59.386Z,25.00
2023-06-23T09:27:08.832Z,25.00
2023-06-23T09:29:19.950Z,25.20
2023-06-23T09:31:30.627Z,25.50
2023-06-23T09:33:47.927Z,25.70
2023-06-23T09:35:58.398Z,25.60
2023-06-23T09:38:08.882Z,24.40
2023-06-23T09:40:19.556Z,24.40
2023-06-23T09:42:34.883Z,24.40
2023-06-23T09:44:46.802Z,24.50
2023-06-23T09:47:02.374Z,24.10
2023-06-23T09:49:10.882Z,24.00
2023-06-23T09:51:20.368Z,24.70
2023-06-23T09:53:34.639Z,24.80
2023-06-23T09:55:47.088Z,24.90
2023-06-23T09:57:55.856Z,25.10
2023-06-23T10:00:07.099Z,25.10
2023-06-23T10:02:24.242Z,24.90
2023-06-23T10:04:33.316Z,25.20
2023-06-23T10:06:41.842Z,25.50
2023-06-23T10:08:55.493Z,25.50
2023-06-23T10:11:03.938Z,25.20
2023-06-23T10:13:12.980Z,24.70
2023-06-23T10:15:22.243Z,25.00
2023-06-23T10:17:31.084Z,25.20
2023-06-23T10:19:40.107Z,25.30
2023-06-23T10:21:50.167Z,25.40
2023-06-23T10:24:01.943Z,25.60
2023-06-23T10:26:11.710Z,26.00
2023-06-23T10:28:21.918Z,26.10
2023-06-23T10:30:31.948Z,26.10
2023-06-23T10:32:45.638Z,25.70
2023-06-23T10:34:58.603Z,25.90
2023-06-23T10:37:08.548Z,25.70
2023-06-23T10:39:21.452Z,25.80
2023-06-23T10:41:30.897Z,26.20
2023-06-23T10:43:43.012Z,25.90
2023-06-23T10:45:52.719Z,26.00
2023-06-23T10:48:02.133Z,26.60
2023-06-23T10:50:12.271Z,26.80
2023-06-23T10:52:21.006Z,26.80
2023-06-23T10:54:31.792Z,26.80
2023-06-23T10:56:43.422Z,26.40
2023-06-23T10:58:52.563Z,26.60
2023-06-23T11:01:13.966Z,26.30
2023-06-23T11:03:34.111Z,26.20
2023-06-23T11:05:44.475Z,26.00
2023-06-23T11:08:03.423Z,26.30
2023-06-23T11:10:14.071Z,26.50
2023-06-23T11:12:41.949Z,26.10
2023-06-23T11:14:50.691Z,25.80
2023-06-23T11:17:02.219Z,25.70
2023-06-23T11:19:11.535Z,25.90
2023-06-23T11:21:21.995Z,25.90
2023-06-23T11:23:30.735Z,25.80
2023-06-23T11:25:45.559Z,25.80
2023-06-23T11:28:27.862Z,26.10
2023-06-23T11:30:55.270Z,26.20
2023-06-23T11:33:28.200Z,26.30
2023-06-23T11:35:36.902Z,26.50
2023-06-23T11:37:46.949Z,26.10
2023-06-23T11:39:57.304Z,25.90
2023-06-23T11:42:08.856Z,25.90
2023-06-23T11:44:18.521Z,25.80
2023-06-23T11:46:27.326Z,25.30
2023-06-23T11:48:37.279Z,24.90
2023-06-23T11:50:46.064Z,24.90
2023-06-23T11:52:55.033Z,24.70
2023-06-23T11:55:05.438Z,24.70
2023-06-23T11:57:18.696Z,24.70
2023-06-23T11:59:29.427Z,24.60
2023-06-23T12:01:39.062Z,24.80
2023-06-23T12:03:49.300Z,24.70
2023-06-23T12:05:58.507Z,24.60
2023-06-23T12:08:08.353Z,24.60
2023-06-23T12:10:19.095Z,24.60
2023-06-23T12:12:30.280Z,24.90
2023-06-23T12:14:38.985Z,25.10
2023-06-23T12:16:47.977Z,24.70
2023-06-23T12:18:56.474Z,24.70
2023-06-23T12:21:05.620Z,24.80
2023-06-23T12:23:15.631Z,24.60
2023-06-23T12:25:31.675Z,24.80
2023-06-23T12:27:42.419Z,24.60
2023-06-23T12:29:51.262Z,24.90
2023-06-23T12:32:04.193Z,25.20
2023-06-23T12:34:14.703Z,25.40
2023-06-23T12:36:23.120Z,25.40
2023-06-23T12:38:33.004Z,25.50
2023-06-23T12:40:44.712Z,25.60
2023-06-23T12:42:58.813Z,25.50
2023-06-23T12:45:09.924Z,25.30
2023-06-23T12:47:20.373Z,25.20
2023-06-23T12:49:34.004Z,25.20
2023-06-23T12:51:42.760Z,24.80
2023-06-23T12:53:51.795Z,24.80
2023-06-23T12:56:00.566Z,25.00
2023-06-23T12:58:11.118Z,25.20
2023-06-23T13:00:21.075Z,25.10
2023-06-23T13:02:30.181Z,24.90
2023-06-23T13:04:38.901Z,24.90
2023-06-23T13:06:47.738Z,25.20
2023-06-23T13:08:56.953Z,25.50
2023-06-23T13:11:05.816Z,25.20
2023-06-23T13:13:16.610Z,25.40
2023-06-23T13:15:25.166Z,25.20
2023-06-23T13:17:33.991Z,25.40
2023-06-23T13:19:42.912Z,25.60
2023-06-23T13:21:53.084Z,25.70
2023-06-23T13:24:01.727Z,25.60
2023-06-23T13:26:10.371Z,25.70
2023-06-23T13:28:20.606Z,25.80
2023-06-23T13:30:30.332Z,25.60
2023-06-23T13:32:39.824Z,25.00
2023-06-23T13:34:48.646Z,24.80
2023-06-23T13:36:57.628Z,24.60
2023-06-23T13:39:06.199Z,24.20
2023-06-23T13:41:15.265Z,24.00
2023-06-23T13:43:26.000Z,24.10
2023-06-23T13:45:35.005Z,23.90
2023-06-23T13:47:44.650Z,23.80
2023-06-23T13:49:53.593Z,23.60
2023-06-23T13:52:03.553Z,23.60
2023-06-23T13:54:12.571Z,23.40
2023-06-23T13:56:20.936Z,23.30
2023-06-23T15:29:18.094Z,25.00
2023-06-23T15:31:26.968Z,25.00
2023-06-23T15:33:35.705Z,25.30
2023-06-23T15:35:44.454Z,25.00
2023-06-23T15:37:53.258Z,25.10
2023-06-23T15:40:02.427Z,25.40
2023-06-23T15:42:11.937Z,25.80
2023-06-23T15:44:22.122Z,24.80
2023-06-23T15:46:31.206Z,24.30
2023-06-23T15:48:39.954Z,23.90
2023-06-23T15:50:48.996Z,23.30
2023-06-23T15:52:58.087Z,22.80
2023-06-23T15:55:07.522Z,22.70
2023-06-23T15:57:16.935Z,22.40
2023-06-23T15:59:27.556Z,22.40
2023-06-23T16:01:36.405Z,22.50
2023-06-23T16:03:45.586Z,22.40
2023-06-23T16:05:54.245Z,22.40
2023-06-23T16:08:03.397Z,22.50
2023-06-23T16:10:12.832Z,22.70
2023-06-23T16:12:21.425Z,22.90
2023-06-23T16:14:31.798Z,22.80
2023-06-23T16:16:42.465Z,22.80
2023-06-23T16:18:51.442Z,22.80
2023-06-23T16:21:00.738Z,22.90
2023-06-23T16:23:09.533Z,22.70
2023-06-23T16:25:18.285Z,22.50
2023-06-23T16:27:27.325Z,22.50
2023-06-23T16:29:37.460Z,22.40
2023-06-23T16:31:46.342Z,22.30
2023-06-23T16:33:57.370Z,22.20
2023-06-23T16:36:07.832Z,22.10
2023-06-23T16:38:16.461Z,22.10
2023-06-23T16:40:24.988Z,22.10
2023-06-23T16:42:33.835Z,22.10
2023-06-23T16:44:45.384Z,22.00
2023-06-23T16:46:54.379Z,22.00
2023-06-23T16:49:03.087Z,22.00
2023-06-23T16:51:11.721Z,22.30
2023-06-23T16:53:20.286Z,22.30
2023-06-23T16:55:29.432Z,22.20
2023-06-23T16:57:38.716Z,22.40
2023-06-23T16:59:49.191Z,22.50
2023-06-23T17:01:57.727Z,22.40
2023-06-23T17:04:07.337Z,22.50
2023-06-23T17:06:16.271Z,22.60
2023-06-23T17:08:24.722Z,22.50
2023-06-23T17:10:33.310Z,22.30
2023-06-23T17:12:45.532Z,22.80
2023-06-23T17:14:55.629Z,23.30
2023-06-23T17:17:04.769Z,23.00
2023-06-23T17:19:13.002Z,23.00
2023-06-23T17:21:21.976Z,22.80
2023-06-23T17:23:31.166Z,22.70
2023-06-23T17:25:39.745Z,22.70
2023-06-23T17:27:48.556Z,22.60
2023-06-23T17:29:59.129Z,22.60
2023-06-23T17:32:09.832Z,22.40
2023-06-23T17:34:18.736Z,22.90
2023-06-23T17:36:27.139Z,23.80
2023-06-23T17:38:36.013Z,24.80
2023-06-23T17:40:44.539Z,25.70
2023-06-23T17:42:53.025Z,26.20
2023-06-23T17:45:03.631Z,26.90
2023-06-23T17:47:12.646Z,27.50
2023-06-23T17:49:21.806Z,27.00
2023-06-23T17:51:30.601Z,25.20
2023-06-23T17:53:40.010Z,24.10
2023-06-23T17:55:49.162Z,23.40
2023-06-23T17:57:57.584Z,23.00
2023-06-23T18:00:09.246Z,22.60
2023-06-23T18:02:21.509Z,22.50
2023-06-23T18:04:31.173Z,23.30
2023-06-23T18:06:39.959Z,24.70
2023-06-23T18:08:48.844Z,26.10
2023-06-23T18:10:57.691Z,26.30
2023-06-23T18:13:06.169Z,24.70
2023-06-23T18:15:16.824Z,23.50
2023-06-23T18:17:25.190Z,22.80
2023-06-23T18:19:34.138Z,22.40
2023-06-23T18:21:43.185Z,22.20
2023-06-23T18:23:52.312Z,22.00
2023-06-23T18:26:01.072Z,21.90
2023-06-23T18:28:09.926Z,21.80
2023-06-23T18:30:20.313Z,21.70
2023-06-23T18:32:44.767Z,22.20
2023-06-23T18:34:53.681Z,23.10
2023-06-23T18:37:02.156Z,23.70
2023-06-23T18:39:10.832Z,23.90
2023-06-23T18:41:19.532Z,23.80
2023-06-23T18:43:27.960Z,23.70
2023-06-23T18:45:38.432Z,23.20
2023-06-23T18:47:47.440Z,22.80
2023-06-23T18:49:56.706Z,22.20
2023-06-23T18:52:06.248Z,21.80
2023-06-23T18:54:14.904Z,21.50
2023-06-23T18:56:23.480Z,21.20
2023-06-23T18:58:32.065Z,21.10
2023-06-23T19:00:42.978Z,21.00
2023-06-23T19:02:52.216Z,20.90
2023-06-23T19:05:00.921Z,20.70
2023-06-23T19:07:10.521Z,20.60
2023-06-23T19:09:19.590Z,20.50
2023-06-23T19:11:28.248Z,20.40
2023-06-23T19:13:37.201Z,20.20
2023-06-23T19:15:47.672Z,20.10
2023-06-23T19:17:56.291Z,19.90
2023-06-23T19:20:05.826Z,19.90
2023-06-23T19:22:14.651Z,19.80
2023-06-23T19:24:23.337Z,19.70
2023-06-23T19:26:33.084Z,19.50
2023-06-23T19:28:42.235Z,19.50
2023-06-23T19:30:53.563Z,19.30
2023-06-23T19:33:02.608Z,19.20
2023-06-23T19:35:11.624Z,19.10
2023-06-23T19:37:20.780Z,19.10
2023-06-23T19:39:30.038Z,19.00
2023-06-23T19:41:38.806Z,19.00
2023-06-23T19:43:47.532Z,18.70
2023-06-23T19:45:57.877Z,18.60
2023-06-23T19:48:07.458Z,18.50
2023-06-23T19:50:16.797Z,18.40
2023-06-23T19:52:26.638Z,18.40
2023-06-23T19:54:35.591Z,18.40
2023-06-23T19:56:44.308Z,18.40
2023-06-23T19:58:52.983Z,18.20
2023-06-23T20:01:03.480Z,18.10
2023-06-23T20:03:12.105Z,17.90
2023-06-23T20:05:21.041Z,17.90
2023-06-23T20:07:29.732Z,17.80
2023-06-23T20:09:38.400Z,17.70
2023-06-23T20:11:47.407Z,17.70
2023-06-23T20:13:56.591Z,17.70
2023-06-23T20:16:07.454Z,17.60
2023-06-23T20:18:16.140Z,17.50
2023-06-23T20:20:24.716Z,17.40
2023-06-23T20:22:33.434Z,17.40
2023-06-23T20:24:42.294Z,17.30
2023-06-23T20:26:50.926Z,17.30
2023-06-23T20:28:59.720Z,17.30
2023-06-23T20:31:10.006Z,17.20
2023-06-23T20:33:18.804Z,17.10
2023-06-23T20:35:27.794Z,17.20
2023-06-23T20:37:37.335Z,17.10
2023-06-23T20:39:48.793Z,17.00
2023-06-23T20:41:57.482Z,16.90
2023-06-23T20:44:06.477Z,16.80
2023-06-23T20:46:16.960Z,16.90
2023-06-23T20:48:25.560Z,16.70
2023-06-23T20:50:34.622Z,16.70
2023-06-23T20:52:43.300Z,16.70
2023-06-23T20:54:52.347Z,16.60
2023-06-23T20:57:01.043Z,16.50
2023-06-23T20:59:10.115Z,16.50
2023-06-23T21:01:21.212Z,16.40
2023-06-23T21:03:29.985Z,16.30
2023-06-23T21:05:39.396Z,16.20
2023-06-23T21:07:48.442Z,16.20
2023-06-23T21:09:57.015Z,16.10
2023-06-23T21:12:09.770Z,16.00
2023-06-23T21:14:19.328Z,15.90
2023-06-23T21:16:30.538Z,15.70
2023-06-23T21:18:40.061Z,15.60
2023-06-23T21:20:49.119Z,15.60
2023-06-23T21:22:57.938Z,15.70
2023-06-23T21:25:07.801Z,15.60
2023-06-23T21:27:17.084Z,15.60
2023-06-23T21:29:26.025Z,15.50
2023-06-23T21:31:36.640Z,15.50
2023-06-23T21:33:45.464Z,15.50
2023-06-23T21:35:54.342Z,15.60
2023-06-23T21:38:03.901Z,15.50
2023-06-23T21:40:16.588Z,15.40
2023-06-23T21:42:24.998Z,15.40
2023-06-23T21:44:33.698Z,15.20
2023-06-23T21:46:44.313Z,15.00
2023-06-23T21:48:55.440Z,14.90
2023-06-23T21:51:04.630Z,14.80
2023-06-23T21:53:13.428Z,14.70
2023-06-23T21:55:22.196Z,14.70
2023-06-23T21:57:30.700Z,14.70
2023-06-23T21:59:39.213Z,14.70
2023-06-23T22:01:50.537Z,14.70
2023-06-23T22:03:59.438Z,14.60
2023-06-23T22:06:08.314Z,14.60
2023-06-23T22:08:17.241Z,14.60
2023-06-23T22:10:30.016Z,14.60
2023-06-23T22:12:38.960Z,14.50
2023-06-23T22:14:47.626Z,14.50
2023-06-23T22:16:58.256Z,14.50
2023-06-23T22:19:07.375Z,14.50
2023-06-23T22:21:15.928Z,14.40
2023-06-23T22:23:24.501Z,14.30
2023-06-23T22:25:34.331Z,14.20
2023-06-23T22:27:43.137Z,14.10
2023-06-23T22:29:52.027Z,14.20
2023-06-23T22:32:02.712Z,14.20
2023-06-23T22:34:11.421Z,14.20
2023-06-23T22:36:20.279Z,14.20
2023-06-23T22:38:28.743Z,14.10
2023-06-23T22:40:38.010Z,14.20
2023-06-23T22:42:47.746Z,14.10
2023-06-23T22:44:56.528Z,14.10
2023-06-23T22:47:08.134Z,14.10
2023-06-23T22:49:16.753Z,14.00
2023-06-23T22:51:25.099Z,14.00
2023-06-23T22:53:33.784Z,14.00
2023-06-23T22:55:42.847Z,14.10
2023-06-23T22:57:51.582Z,14.10
2023-06-23T23:00:00.394Z,14.10
2023-06-23T23:02:10.948Z,14.10
2023-06-23T23:04:19.764Z,14.10
2023-06-23T23:06:28.581Z,14.00
2023-06-23T23:08:37.376Z,13.90
2023-06-23T23:10:46.528Z,13.80
2023-06-23T23:12:55.362Z,13.90
2023-06-23T23:15:04.425Z,13.90
2023-06-23T23:17:15.113Z,13.80
2023-06-23T23:19:24.299Z,13.80
2023-06-23T23:21:33.217Z,13.80
2023-06-23T23:23:42.092Z,13.80
2023-06-23T23:25:51.029Z,13.70
2023-06-23T23:28:03.182Z,13.70
2023-06-23T23:30:13.869Z,13.60
2023-06-23T23:32:24.718Z,13.60
2023-06-23T23:34:33.917Z,13.60
2023-06-23T23:36:44.591Z,13.50
2023-06-23T23:38:53.396Z,13.50
2023-06-23T23:41:01.966Z,13.30
2023-06-23T23:43:11.055Z,13.30
2023-06-23T23:45:20.058Z,13.30
2023-06-23T23:47:30.661Z,13.40
2023-06-23T23:49:39.389Z,13.30
2023-06-23T23:51:47.969Z,13.40
2023-06-23T23:53:56.588Z,13.40
2023-06-23T23:56:06.059Z,13.30
2023-06-23T23:58:14.877Z,13.20
